Time;durP1;ratioP1;P1;durP2;ratioP2;P2;SDS_P1;SDS_P2;PMS_P1;PMS_P2;Temp;Humidity;BMP_temperature;BMP_pressure;BME280_temperature;BME280_humidity;BME280_pressure;Samples;Min_cycle;Max_cycle;Signal;HPM_P1;HPM_P2
2022/08/09 00:01:42;;;;;;;989.47;902.65;;;22.30;92.10;;;;;;4994436;28;20196;-81
2022/08/09 00:04:10;;;;;;;989.80;902.85;;;22.30;92.10;;;;;;4992120;28;20209;-80
2022/08/09 00:06:37;;;;;;;989.45;902.33;;;22.30;92.20;;;;;;4996915;28;20205;-80
2022/08/09 00:09:04;;;;;;;972.08;885.40;;;22.30;92.30;;;;;;4979494;28;20248;-81
2022/08/09 00:11:31;;;;;;;985.13;898.25;;;22.30;92.30;;;;;;4998195;28;20265;-82
2022/08/09 00:13:58;;;;;;;991.15;904.15;;;22.30;92.40;;;;;;4987702;28;20253;-81
2022/08/09 00:16:25;;;;;;;988.50;901.25;;;22.20;92.40;;;;;;4993726;28;20193;-81
2022/08/09 00:18:52;;;;;;;1000.13;912.63;;;22.20;92.50;;;;;;4994587;28;20221;-81
2022/08/09 00:21:20;;;;;;;970.45;883.92;;;22.20;92.60;;;;;;4999388;28;20291;-81
2022/08/09 00:23:47;;;;;;;979.03;892.08;;;22.20;92.70;;;;;;4994431;28;20205;-83
2022/08/09 00:26:13;;;;;;;975.08;888.53;;;22.20;92.80;;;;;;4992369;28;20614;-82
2022/08/09 00:28:40;;;;;;;984.88;897.83;;;22.20;92.80;;;;;;4989882;28;20197;-81
2022/08/09 00:31:08;;;;;;;980.25;893.65;;;22.10;92.80;;;;;;4991638;28;20303;-81
2022/08/09 00:33:36;;;;;;;959.33;873.33;;;22.10;92.90;;;;;;4993222;28;20218;-82
2022/08/09 00:36:03;;;;;;;974.88;888.28;;;22.10;93.00;;;;;;4996868;28;20767;-81
2022/08/09 00:38:31;;;;;;;970.92;884.45;;;22.10;93.10;;;;;;4996089;28;20197;-80
2022/08/09 00:40:58;;;;;;;971.42;885.17;;;22.10;93.10;;;;;;4994023;28;20743;-80
2022/08/09 00:43:25;;;;;;;976.10;889.60;;;22.00;93.20;;;;;;4989456;28;20260;-82
2022/08/09 00:45:52;;;;;;;961.72;875.63;;;22.00;93.30;;;;;;4997832;28;20205;-82
2022/08/09 00:48:19;;;;;;;962.08;875.63;;;22.00;93.30;;;;;;4993529;28;20280;-80
2022/08/09 00:50:48;;;;;;;962.47;876.55;;;22.00;93.40;;;;;;4999892;28;20235;-82
2022/08/09 00:53:16;;;;;;;945.08;859.75;;;22.00;93.40;;;;;;4988748;28;20228;-82
2022/08/09 00:55:44;;;;;;;949.20;863.58;;;22.00;93.50;;;;;;4995181;28;20664;-82
2022/08/09 00:58:10;;;;;;;992.90;905.17;;;22.00;93.60;;;;;;4994649;28;20224;-80
2022/08/09 01:00:42;;;;;;;965.42;878.92;;;21.90;93.70;;;;;;4993307;28;20305;-82
2022/08/09 01:03:14;;;;;;;969.05;882.13;;;21.90;93.70;;;;;;4994238;28;20296;-80
2022/08/09 01:05:47;;;;;;;972.55;885.72;;;21.90;93.80;;;;;;5002865;28;20298;-81
2022/08/09 01:08:26;;;;;;;964.28;877.60;;;21.90;93.90;;;;;;4991047;28;20214;-81
2022/08/09 01:11:04;;;;;;;957.42;870.97;;;21.90;94.00;;;;;;4994072;28;20224;-81
2022/08/09 01:13:40;;;;;;;978.05;890.83;;;21.80;94.00;;;;;;4989276;28;20227;-82
2022/08/09 01:16:11;;;;;;;963.22;876.55;;;21.80;94.10;;;;;;4985815;28;20211;-81
2022/08/09 01:18:42;;;;;;;960.83;874.33;;;21.80;94.20;;;;;;4995888;28;20704;-80
2022/08/09 01:21:20;;;;;;;944.92;858.72;;;21.80;94.30;;;;;;4996297;28;20195;-80
2022/08/09 01:23:58;;;;;;;970.80;883.85;;;21.80;94.40;;;;;;4994798;28;20236;-81
2022/08/09 01:26:46;;;;;;;958.60;871.72;;;21.70;94.80;;;;;;4990152;28;20738;-81
2022/08/09 01:29:16;;;;;;;977.35;890.35;;;21.70;94.60;;;;;;4991550;28;20208;-80
2022/08/09 01:31:44;;;;;;;981.72;894.33;;;21.70;94.60;;;;;;4994749;28;20235;-81
2022/08/09 01:34:16;;;;;;;954.67;868.10;;;21.70;94.70;;;;;;4990732;28;20193;-80
2022/08/09 01:36:46;;;;;;;966.58;879.70;;;21.70;94.80;;;;;;4992139;28;20227;-81
2022/08/09 01:39:16;;;;;;;945.15;858.92;;;21.60;94.80;;;;;;4993606;28;20201;-81
2022/08/09 01:41:45;;;;;;;972.63;885.47;;;21.60;95.00;;;;;;4989547;28;20200;-82
2022/08/09 01:44:13;;;;;;;971.67;884.65;;;21.60;95.00;;;;;;4997246;28;20255;-81
2022/08/09 01:46:44;;;;;;;971.08;883.90;;;21.60;95.10;;;;;;4992987;28;20208;-82
2022/08/09 01:49:15;;;;;;;968.88;881.80;;;21.60;95.20;;;;;;4991249;28;20216;-82
2022/08/09 01:51:44;;;;;;;959.17;872.60;;;21.60;95.20;;;;;;4994377;28;20217;-81
2022/08/09 01:54:14;;;;;;;959.25;872.45;;;21.60;95.30;;;;;;4998757;28;20571;-80
2022/08/09 01:56:44;;;;;;;955.95;869.30;;;21.50;95.40;;;;;;4991842;28;20213;-82
2022/08/09 01:59:15;;;;;;;964.83;878.13;;;21.50;95.50;;;;;;4990871;28;20305;-82
2022/08/09 02:01:46;;;;;;;958.38;871.90;;;21.50;95.60;;;;;;4993201;28;20189;-80
2022/08/09 02:04:15;;;;;;;959.97;873.30;;;21.50;95.70;;;;;;4992322;28;20197;-80
2022/08/09 02:09:33;;;;;;;959.45;872.80;;;21.50;96.00;;;;;;4996596;28;20204;-81
2022/08/09 02:12:04;;;;;;;958.58;871.88;;;21.40;96.10;;;;;;4993042;28;20592;-81
2022/08/09 02:14:33;;;;;;;958.17;871.20;;;21.40;96.10;;;;;;4993497;28;20549;-80
2022/08/09 02:16:59;;;;;;;944.35;858.15;;;21.40;96.30;;;;;;4992002;28;20211;-80
2022/08/09 02:19:27;;;;;;;955.53;869.22;;;21.40;96.30;;;;;;4984509;28;20299;-81
2022/08/09 02:21:59;;;;;;;955.92;869.33;;;21.40;96.40;;;;;;4992216;28;20193;-81
2022/08/09 02:24:34;;;;;;;955.75;869.08;;;21.40;96.50;;;;;;4998958;28;20197;-80
2022/08/09 02:27:05;;;;;;;948.88;862.80;;;21.30;96.60;;;;;;4991663;28;20199;-81
2022/08/09 02:29:35;;;;;;;932.90;847.63;;;21.30;96.70;;;;;;4993102;28;20220;-81
2022/08/09 02:32:05;;;;;;;932.08;846.70;;;21.30;96.80;;;;;;4991756;28;20240;-81
2022/08/09 02:34:35;;;;;;;936.55;851.17;;;21.30;96.80;;;;;;4988454;28;20597;-82
2022/08/09 02:37:05;;;;;;;927.85;842.67;;;21.30;97.00;;;;;;4988530;28;20320;-83
2022/08/09 02:39:36;;;;;;;931.22;846.05;;;21.20;97.00;;;;;;4992225;28;20231;-82
2022/08/09 02:42:08;;;;;;;925.38;840.40;;;21.20;97.10;;;;;;4984152;28;20233;-82
2022/08/09 02:44:39;;;;;;;918.33;833.42;;;21.20;97.30;;;;;;4997098;28;20656;-82
2022/08/09 02:47:12;;;;;;;924.72;839.95;;;21.20;97.40;;;;;;4989068;28;20215;-83
2022/08/09 02:49:45;;;;;;;926.13;841.40;;;21.20;97.40;;;;;;4985145;28;20720;-81
2022/08/09 02:52:18;;;;;;;935.70;850.20;;;21.20;97.60;;;;;;4991881;28;20275;-81
2022/08/09 02:54:46;;;;;;;931.42;846.03;;;21.10;97.60;;;;;;4991610;28;20208;-83
2022/08/09 02:57:18;;;;;;;936.42;850.95;;;21.10;97.70;;;;;;4990674;28;20288;-82
2022/08/09 02:59:45;;;;;;;916.55;831.85;;;21.10;97.90;;;;;;4988895;28;20200;-82
2022/08/09 03:02:15;;;;;;;919.20;834.22;;;21.10;98.00;;;;;;4988268;28;20193;-82
2022/08/09 03:04:44;;;;;;;917.08;832.08;;;21.10;98.10;;;;;;4992064;28;20203;-83
2022/08/09 03:07:12;;;;;;;930.42;845.25;;;21.10;98.20;;;;;;4996952;28;20200;-81
2022/08/09 03:09:40;;;;;;;928.95;843.47;;;21.10;98.30;;;;;;4989509;28;20209;-81
2022/08/09 03:12:08;;;;;;;916.40;831.65;;;21.00;98.30;;;;;;4989556;28;20220;-82
2022/08/09 03:14:38;;;;;;;914.67;829.97;;;21.00;98.30;;;;;;5000340;28;20197;-82
2022/08/09 03:17:05;;;;;;;932.80;847.45;;;21.00;98.50;;;;;;4987757;28;20208;-81
2022/08/09 03:19:33;;;;;;;916.47;831.75;;;21.00;98.60;;;;;;4987281;28;20216;-82
2022/08/09 03:22:00;;;;;;;921.00;835.97;;;21.00;98.70;;;;;;4988845;28;20204;-81
2022/08/09 03:24:27;;;;;;;907.85;823.15;;;21.00;98.80;;;;;;4990006;28;20193;-82
2022/08/09 03:26:55;;;;;;;920.17;835.08;;;21.00;98.90;;;;;;4991341;28;20197;-82
2022/08/09 03:29:22;;;;;;;900.90;816.38;;;20.90;99.00;;;;;;4990823;28;20660;-82
2022/08/09 03:31:51;;;;;;;910.03;825.25;;;20.90;99.00;;;;;;4988459;28;20580;-81
2022/08/09 03:34:18;;;;;;;905.85;821.03;;;20.90;99.10;;;;;;4985184;28;20227;-82
2022/08/09 03:36:45;;;;;;;919.35;834.28;;;20.90;99.20;;;;;;4983335;28;20197;-82
2022/08/09 03:39:12;;;;;;;913.05;827.90;;;20.90;99.30;;;;;;4986157;28;20207;-82
2022/08/09 03:41:38;;;;;;;926.85;841.55;;;20.80;99.50;;;;;;4997918;28;20208;-82
2022/08/09 03:44:05;;;;;;;923.20;837.85;;;20.80;99.50;;;;;;4995581;28;20196;-82
2022/08/09 03:46:32;;;;;;;904.80;820.03;;;20.80;99.60;;;;;;4989942;28;20205;-82
2022/08/09 03:49:03;;;;;;;903.65;818.92;;;20.80;99.70;;;;;;4985207;28;20196;-82
2022/08/09 03:51:31;;;;;;;908.95;823.88;;;20.80;99.80;;;;;;4989006;28;20212;-82
2022/08/09 03:53:58;;;;;;;927.53;841.85;;;20.80;99.90;;;;;;4983505;28;20688;-82
2022/08/09 03:56:25;;;;;;;922.35;836.70;;;20.70;99.90;;;;;;4986994;28;20193;-82
2022/08/09 03:58:51;;;;;;;931.92;846.03;;;20.70;99.90;;;;;;4991260;28;20615;-82
2022/08/09 04:01:18;;;;;;;914.95;829.65;;;20.70;99.90;;;;;;4989938;28;20200;-81
2022/08/09 04:03:46;;;;;;;909.47;824.45;;;20.70;99.90;;;;;;4994299;28;20208;-82
2022/08/09 04:06:14;;;;;;;911.83;826.92;;;20.70;99.90;;;;;;4985937;28;20197;-82
2022/08/09 04:08:41;;;;;;;906.35;821.53;;;20.70;99.90;;;;;;4990404;28;20208;-82
2022/08/09 04:11:07;;;;;;;913.83;828.55;;;20.70;99.90;;;;;;4989656;28;20670;-82
2022/08/09 04:13:34;;;;;;;903.20;818.13;;;20.60;99.90;;;;;;4986166;28;20677;-81
2022/08/09 04:16:01;;;;;;;923.17;837.80;;;20.70;99.90;;;;;;4983836;28;20221;-81
2022/08/09 04:18:27;;;;;;;918.42;832.83;;;20.60;99.90;;;;;;4987391;28;20216;-82
2022/08/09 04:20:54;;;;;;;902.28;817.38;;;20.60;99.90;;;;;;4981410;28;20209;-81
2022/08/09 04:23:23;;;;;;;912.47;827.33;;;20.60;99.90;;;;;;4989574;28;20530;-80
2022/08/09 04:25:49;;;;;;;916.10;830.95;;;20.60;99.90;;;;;;4985118;28;20252;-80
2022/08/09 04:28:16;;;;;;;914.13;829.00;;;20.60;99.90;;;;;;4989938;28;20248;-82
2022/08/09 04:30:43;;;;;;;897.05;812.15;;;20.60;99.90;;;;;;4982260;28;20216;-81
2022/08/09 04:33:10;;;;;;;918.28;832.92;;;20.50;99.90;;;;;;4985201;28;20221;-81
2022/08/09 04:35:38;;;;;;;912.30;827.03;;;20.50;99.90;;;;;;4990611;28;20215;-81
2022/08/09 04:38:05;;;;;;;902.75;817.75;;;20.50;99.90;;;;;;4989077;28;20197;-82
2022/08/09 04:40:49;;;;;;;905.20;820.10;;;20.50;99.90;;;;;;4996204;28;20262;-82
2022/08/09 04:43:16;;;;;;;905.00;820.13;;;20.50;99.90;;;;;;4993715;28;20200;-82
2022/08/09 04:45:43;;;;;;;916.40;831.13;;;20.50;99.90;;;;;;4986003;28;20201;-83
2022/08/09 04:48:11;;;;;;;893.45;808.78;;;20.50;99.90;;;;;;4988386;28;20201;-82
2022/08/09 04:50:39;;;;;;;912.35;826.97;;;20.50;99.90;;;;;;4990143;28;20201;-82
2022/08/09 04:53:06;;;;;;;907.83;822.75;;;20.50;99.90;;;;;;4989915;28;20217;-80
2022/08/09 04:55:35;;;;;;;905.85;820.92;;;20.50;99.90;;;;;;4989156;28;20220;-80
2022/08/09 04:58:02;;;;;;;911.90;826.83;;;20.50;99.90;;;;;;4993837;28;20200;-80
2022/08/09 05:00:28;;;;;;;900.17;815.28;;;20.40;99.90;;;;;;4991701;28;20212;-81
2022/08/09 05:02:55;;;;;;;898.92;814.13;;;20.40;99.90;;;;;;4990039;28;20201;-79
2022/08/09 05:05:22;;;;;;;897.38;812.40;;;20.40;99.90;;;;;;4991411;28;20224;-80
2022/08/09 05:07:49;;;;;;;888.40;803.85;;;20.40;99.90;;;;;;4983843;28;20219;-79
2022/08/09 05:10:15;;;;;;;886.47;801.92;;;20.40;99.90;;;;;;4993580;28;20213;-82
2022/08/09 05:12:44;;;;;;;908.90;823.88;;;20.40;99.90;;;;;;4990684;28;20219;-81
2022/08/09 05:15:11;;;;;;;890.15;805.30;;;20.40;99.90;;;;;;4991027;28;20201;-81
2022/08/09 05:17:37;;;;;;;885.80;801.35;;;20.30;99.90;;;;;;4991615;28;20201;-82
2022/08/09 05:20:05;;;;;;;907.45;822.35;;;20.30;99.90;;;;;;4989736;28;20228;-82
2022/08/09 05:22:32;;;;;;;882.35;798.05;;;20.30;99.90;;;;;;4989040;28;20684;-82
2022/08/09 05:24:59;;;;;;;888.85;804.40;;;20.30;99.90;;;;;;4990000;28;20293;-83
2022/08/09 05:27:26;;;;;;;888.72;804.15;;;20.30;99.90;;;;;;4991234;28;20667;-83
2022/08/09 05:29:54;;;;;;;887.83;802.97;;;20.30;99.90;;;;;;4990141;28;20193;-83
2022/08/09 05:32:20;;;;;;;893.90;808.90;;;20.30;99.90;;;;;;4991927;28;20220;-83
2022/08/09 05:34:47;;;;;;;890.45;805.85;;;20.30;99.90;;;;;;5000379;28;20215;-82
2022/08/09 05:37:14;;;;;;;892.28;807.28;;;20.30;99.90;;;;;;4989627;28;20227;-83
2022/08/09 05:39:41;;;;;;;887.50;802.92;;;20.30;99.90;;;;;;4998432;28;20304;-84
2022/08/09 05:42:08;;;;;;;897.20;812.25;;;20.30;99.90;;;;;;4999055;28;20192;-84
2022/08/09 05:44:35;;;;;;;884.88;800.35;;;20.40;99.90;;;;;;4992739;28;20288;-84
2022/08/09 05:47:03;;;;;;;893.10;808.47;;;20.60;99.90;;;;;;4984530;28;20201;-84
2022/08/09 05:49:30;;;;;;;897.63;812.67;;;20.70;99.90;;;;;;4991066;28;20524;-84
2022/08/09 05:51:57;;;;;;;919.70;834.10;;;20.90;99.90;;;;;;4992757;28;20689;-83
2022/08/09 05:54:23;;;;;;;926.05;840.53;;;21.10;99.90;;;;;;4994074;28;20240;-82
2022/08/09 05:56:50;;;;;;;940.40;854.20;;;21.30;99.90;;;;;;4988139;28;20198;-82
2022/08/09 05:59:18;;;;;;;939.92;853.65;;;21.50;99.90;;;;;;4992288;28;20668;-82
2022/08/09 06:01:45;;;;;;;954.13;867.53;;;21.70;99.90;;;;;;4996399;28;20596;-83
2022/08/09 06:04:13;;;;;;;950.60;864.15;;;21.90;99.90;;;;;;4991021;28;20667;-82
2022/08/09 06:06:40;;;;;;;963.10;876.58;;;22.00;99.60;;;;;;4989723;28;20200;-82
2022/08/09 06:09:07;;;;;;;978.38;891.22;;;22.20;99.30;;;;;;4989675;28;20236;-82
2022/08/09 06:11:34;;;;;;;984.13;897.03;;;22.40;98.90;;;;;;4987140;28;20205;-81
2022/08/09 06:14:01;;;;;;;975.10;888.17;;;22.50;98.80;;;;;;4994294;28;20216;-82
2022/08/09 06:16:28;;;;;;;982.60;895.45;;;22.60;98.20;;;;;;4990561;28;20355;-81
2022/08/09 06:18:55;;;;;;;997.58;910.22;;;22.70;97.70;;;;;;4989169;28;20229;-81
2022/08/09 06:21:23;;;;;;;984.20;897.08;;;22.90;97.40;;;;;;4992299;28;20571;-81
2022/08/09 06:23:51;;;;;;;999.72;912.28;;;23.00;97.00;;;;;;4991276;28;20215;-80
2022/08/09 06:26:19;;;;;;;996.22;908.85;;;23.10;96.70;;;;;;4987386;28;20700;-79
2022/08/09 06:28:46;;;;;;;1015.45;927.55;;;23.20;96.40;;;;;;4987896;28;20212;-80
2022/08/09 06:31:13;;;;;;;1003.55;915.95;;;23.30;96.10;;;;;;4985836;28;20205;-78
2022/08/09 06:33:40;;;;;;;1007.35;919.97;;;23.30;95.90;;;;;;4984670;28;20234;-79
2022/08/09 06:36:07;;;;;;;1005.67;917.95;;;23.40;95.70;;;;;;4989120;28;20220;-79
2022/08/09 06:38:35;;;;;;;1009.50;921.88;;;23.50;95.60;;;;;;4991305;28;20202;-78
2022/08/09 06:41:02;;;;;;;1017.90;929.88;;;23.60;95.30;;;;;;4994547;28;20200;-79
2022/08/09 06:43:28;;;;;;;1007.47;920.03;;;23.70;95.20;;;;;;4992086;28;20197;-77
2022/08/09 06:45:55;;;;;;;1027.63;939.00;;;23.70;94.90;;;;;;4995161;28;20201;-79
2022/08/09 06:48:22;;;;;;;1028.28;939.78;;;23.80;94.70;;;;;;4987066;28;20198;-77
2022/08/09 06:50:48;;;;;;;1043.85;954.10;;;23.80;94.70;;;;;;4989223;28;20197;-78
2022/08/09 06:53:15;;;;;;;1037.50;948.80;;;23.90;94.50;;;;;;4991332;28;20288;-79
2022/08/09 06:55:43;;;;;;;1032.72;944.17;;;24.00;94.30;;;;;;4990606;28;20201;-77
2022/08/09 06:58:10;;;;;;;1039.60;950.88;;;24.00;94.10;;;;;;4985468;28;20197;-80
2022/08/09 07:00:37;;;;;;;1048.18;958.80;;;24.10;94.00;;;;;;4989902;28;20549;-80
2022/08/09 07:03:04;;;;;;;1053.47;963.95;;;24.20;93.90;;;;;;4986630;28;20659;-79
2022/08/09 07:05:31;;;;;;;1035.63;946.72;;;24.20;93.70;;;;;;4997424;28;20209;-80
2022/08/09 07:07:57;;;;;;;1054.55;965.22;;;24.30;93.50;;;;;;4989951;28;20576;-80
2022/08/09 07:10:24;;;;;;;1062.40;972.67;;;24.40;93.30;;;;;;4992406;28;20196;-79
2022/08/09 07:12:52;;;;;;;1059.78;970.05;;;24.40;93.20;;;;;;4981935;28;20584;-80
2022/08/09 07:15:19;;;;;;;1051.85;962.53;;;24.50;93.00;;;;;;4989754;28;20208;-80
2022/08/09 07:17:46;;;;;;;1071.30;981.15;;;24.60;92.90;;;;;;4989266;28;20640;-80
2022/08/09 07:20:14;;;;;;;1064.80;975.10;;;24.60;92.70;;;;;;4995867;28;20220;-79
2022/08/09 07:22:41;;;;;;;1068.60;978.83;;;24.70;92.70;;;;;;4991451;28;20456;-79
2022/08/09 07:25:08;;;;;;;1075.40;985.45;;;24.70;92.40;;;;;;4994944;28;20200;-80
2022/08/09 07:27:35;;;;;;;1075.30;985.10;;;24.80;92.40;;;;;;4988708;28;20193;-79
2022/08/09 07:30:05;;;;;;;1069.77;979.47;;;24.80;92.20;;;;;;4989327;28;20478;-81
2022/08/09 07:32:31;;;;;;;1066.27;976.20;;;24.90;92.10;;;;;;4985827;28;20451;-81
2022/08/09 07:34:58;;;;;;;1083.60;992.42;;;25.00;92.00;;;;;;4984270;28;20427;-80
2022/08/09 07:37:25;;;;;;;1084.77;993.87;;;25.00;91.90;;;;;;4991437;28;20288;-80
2022/08/09 07:39:52;;;;;;;1065.60;975.50;;;25.00;91.70;;;;;;4986770;28;20443;-80
2022/08/09 07:42:18;;;;;;;1074.50;984.40;;;25.10;91.70;;;;;;4993522;28;20465;-81
2022/08/09 07:44:45;;;;;;;1086.40;995.00;;;25.10;91.50;;;;;;4990033;28;20460;-81
2022/08/09 07:47:13;;;;;;;1070.70;980.93;;;25.20;91.40;;;;;;4983827;28;20467;-81
2022/08/09 07:49:40;;;;;;;1083.70;993.10;;;25.20;91.40;;;;;;4985568;28;20514;-81
2022/08/09 07:52:07;;;;;;;1077.57;987.50;;;25.30;91.40;;;;;;4990692;28;20939;-80
2022/08/09 07:54:33;;;;;;;1094.15;998.15;;;25.30;91.10;;;;;;4990354;28;20462;-80
2022/08/09 07:57:00;;;;;;;1076.63;986.80;;;25.30;91.40;;;;;;4986902;28;20289;-81
2022/08/09 07:59:27;;;;;;;1097.23;999.73;;;25.40;91.00;;;;;;4987271;28;20460;-82
2022/08/09 08:01:54;;;;;;;1102.17;999.90;;;25.40;90.90;;;;;;4987713;28;20465;-80
2022/08/09 08:04:23;;;;;;;1087.17;995.37;;;25.50;90.80;;;;;;4990991;28;20590;-81
2022/08/09 08:06:50;;;;;;;1074.87;984.90;;;25.50;91.10;;;;;;4988604;28;20468;-82
2022/08/09 08:09:17;;;;;;;1087.17;995.33;;;25.50;91.20;;;;;;4990407;28;20867;-83
2022/08/09 08:11:44;;;;;;;1097.33;999.60;;;25.40;91.10;;;;;;4988641;28;20469;-82
2022/08/09 08:14:11;;;;;;;1086.57;994.77;;;25.40;91.10;;;;;;4992178;28;20480;-82
2022/08/09 08:16:37;;;;;;;1096.27;999.33;;;25.50;91.10;;;;;;4990654;28;20454;-81
2022/08/09 08:19:04;;;;;;;1109.37;999.90;;;25.60;90.90;;;;;;4992146;28;20451;-82
2022/08/09 08:21:32;;;;;;;1111.67;999.90;;;25.60;90.80;;;;;;5000157;28;20415;-84
2022/08/09 08:23:59;;;;;;;1116.87;999.90;;;25.70;90.60;;;;;;4992254;28;20839;-85
2022/08/09 08:26:26;;;;;;;1104.70;999.90;;;25.70;90.40;;;;;;5001096;28;20468;-84
2022/08/09 08:28:52;;;;;;;1110.30;999.90;;;25.80;90.40;;;;;;4985526;28;20944;-83
2022/08/09 08:31:19;;;;;;;1106.77;999.90;;;25.80;90.20;;;;;;4987263;28;20463;-85
2022/08/09 08:33:46;;;;;;;1116.40;999.90;;;25.90;90.20;;;;;;4990019;28;20987;-83
2022/08/09 08:36:12;;;;;;;1116.93;999.90;;;25.90;90.10;;;;;;5003322;28;20473;-81
2022/08/09 08:38:41;;;;;;;1121.00;999.90;;;25.90;90.00;;;;;;4999316;28;20839;-84
2022/08/09 08:41:09;;;;;;;1117.23;999.90;;;25.90;89.90;;;;;;5000161;28;20539;-85
2022/08/09 08:43:35;;;;;;;1112.00;999.90;;;25.90;89.80;;;;;;5003622;28;20909;-85
2022/08/09 08:46:08;;;;;;;1116.50;999.90;;;25.90;89.60;;;;;;4994784;28;20943;-85
2022/08/09 08:48:35;;;;;;;1126.03;999.90;;;26.00;89.60;;;;;;4998523;28;20457;-85
2022/08/09 08:51:03;;;;;;;1125.33;999.90;;;26.00;89.50;;;;;;5003910;28;20430;-85
2022/08/09 08:53:30;;;;;;;1121.83;999.90;;;26.00;89.20;;;;;;4995472;28;20450;-84
2022/08/09 08:55:58;;;;;;;1115.53;999.90;;;26.00;89.10;;;;;;4993898;28;20478;-83
2022/08/09 08:58:28;;;;;;;1119.13;999.90;;;26.00;89.10;;;;;;4995268;28;20459;-85
2022/08/09 09:00:57;;;;;;;1102.73;999.90;;;26.00;89.00;;;;;;4993070;28;20460;-85
2022/08/09 09:03:26;;;;;;;1114.30;999.90;;;26.00;89.00;;;;;;4993807;28;20456;-84
2022/08/09 09:05:55;;;;;;;1125.53;999.90;;;26.00;88.70;;;;;;4991965;28;20942;-85
2022/08/09 09:08:24;;;;;;;1114.07;999.90;;;26.00;88.60;;;;;;4991329;28;20788;-82
2022/08/09 09:10:52;;;;;;;1121.50;999.90;;;26.00;88.10;;;;;;5002477;28;20460;-83
2022/08/09 09:13:21;;;;;;;1117.07;999.90;;;26.00;89.20;;;;;;5001942;28;20478;-84
2022/08/09 09:15:47;;;;;;;1116.73;999.90;;;25.90;88.10;;;;;;4993343;28;20456;-84
2022/08/09 09:18:15;;;;;;;1128.83;999.90;;;25.90;88.50;;;;;;4996268;28;20843;-84
2022/08/09 09:20:43;;;;;;;1112.67;999.90;;;25.90;88.60;;;;;;4977580;28;20456;-85
2022/08/09 09:23:10;;;;;;;1113.37;999.90;;;25.90;89.10;;;;;;4983590;28;20683;-83
2022/08/09 09:25:40;;;;;;;1114.23;999.90;;;25.80;88.90;;;;;;4991225;28;20434;-84
2022/08/09 09:28:10;;;;;;;1120.20;999.90;;;25.90;88.90;;;;;;4989090;28;20464;-83
2022/08/09 09:30:54;;;;;;;1114.13;999.90;;;25.80;88.60;;;;;;4986288;28;20471;-85
2022/08/09 09:33:30;;;;;;;1113.20;999.90;;;25.90;88.70;;;;;;4988038;28;20476;-84
2022/08/09 09:35:58;;;;;;;1104.90;999.90;;;25.80;88.10;;;;;;4993951;28;20447;-84
2022/08/09 09:38:40;;;;;;;1101.97;999.90;;;25.80;88.50;;;;;;4994365;28;20807;-84
2022/08/09 09:41:07;;;;;;;1108.90;999.90;;;25.80;88.70;;;;;;4993872;28;20846;-85
2022/08/09 09:43:34;;;;;;;1116.83;999.90;;;25.80;88.60;;;;;;4999983;28;20455;-85
2022/08/09 09:46:02;;;;;;;1112.83;999.90;;;25.80;88.70;;;;;;4999449;28;20475;-83
2022/08/09 09:48:30;;;;;;;1104.67;999.90;;;25.80;88.20;;;;;;4990640;28;20456;-84
2022/08/09 09:50:56;;;;;;;1116.83;999.90;;;25.80;89.00;;;;;;4992560;28;20460;-86
2022/08/09 09:53:24;;;;;;;1104.90;999.90;;;25.70;88.50;;;;;;4991856;28;20851;-85
2022/08/09 09:55:59;;;;;;;1119.53;999.90;;;25.70;88.10;;;;;;4990117;28;20480;-84
2022/08/09 09:58:27;;;;;;;1098.90;999.87;;;25.70;88.90;;;;;;4995950;28;20978;-83
2022/08/09 10:00:55;;;;;;;1097.80;999.73;;;25.70;89.00;;;;;;4991693;28;20468;-85
2022/08/09 10:03:40;;;;;;;1105.27;999.90;;;25.70;88.90;;;;;;4988830;28;20423;-85
2022/08/09 10:06:08;;;;;;;1092.47;997.80;;;25.70;89.00;;;;;;4988032;28;21052;-84
2022/08/09 10:08:34;;;;;;;1104.00;999.90;;;25.70;88.60;;;;;;4990229;28;20435;-84
2022/08/09 10:11:20;;;;;;;1109.73;999.90;;;25.70;88.30;;;;;;4994069;28;20426;-85
2022/08/09 10:13:47;;;;;;;1104.20;999.90;;;25.70;88.50;;;;;;4988357;28;20487;-81
2022/08/09 10:16:15;;;;;;;1112.80;999.90;;;25.60;88.50;;;;;;4991260;28;20941;-82
2022/08/09 10:18:52;;;;;;;1107.57;999.90;;;25.60;87.90;;;;;;4986683;28;20568;-85
2022/08/09 10:21:19;;;;;;;1110.27;999.90;;;25.60;87.40;;;;;;4999638;28;21107;-84
2022/08/09 10:23:47;;;;;;;1099.30;999.90;;;25.50;87.30;;;;;;5004022;28;20456;-80
2022/08/09 10:26:14;;;;;;;1106.47;999.90;;;25.50;87.60;;;;;;4984978;28;20468;-79
2022/08/09 10:28:44;;;;;;;1096.50;999.90;;;25.50;87.10;;;;;;4987649;28;20460;-83
2022/08/09 10:31:12;;;;;;;1104.97;999.90;;;25.50;87.00;;;;;;4987387;28;20438;-83
2022/08/09 10:33:40;;;;;;;1101.90;999.90;;;25.50;87.20;;;;;;4989805;28;20454;-82
2022/08/09 10:36:10;;;;;;;1102.33;999.90;;;25.50;87.40;;;;;;4994424;28;20459;-80
2022/08/09 10:38:38;;;;;;;1085.60;994.17;;;25.50;87.10;;;;;;4992057;28;20458;-82
2022/08/09 10:41:05;;;;;;;1096.20;999.17;;;25.40;87.30;;;;;;4994294;28;20452;-83
2022/08/09 10:43:32;;;;;;;1101.40;999.90;;;25.40;87.70;;;;;;4993181;28;20650;-81
2022/08/09 10:46:13;;;;;;;1097.07;999.47;;;25.40;87.60;;;;;;4989545;28;21013;-83
2022/08/09 10:48:45;;;;;;;1106.50;999.90;;;25.40;87.20;;;;;;4987902;28;20968;-84
2022/08/09 10:51:25;;;;;;;1099.50;999.90;;;25.40;87.50;;;;;;4994406;28;20560;-83
2022/08/09 10:54:01;;;;;;;1096.57;999.50;;;25.40;87.50;;;;;;4988591;28;20495;-81
2022/08/09 10:56:32;;;;;;;1101.40;999.90;;;25.40;87.30;;;;;;4991700;28;20481;-83
2022/08/09 10:59:02;;;;;;;1100.50;999.90;;;25.30;86.90;;;;;;4996396;28;20463;-81
2022/08/09 11:01:39;;;;;;;1097.17;999.67;;;25.40;86.80;;;;;;4988464;28;20543;-81
2022/08/09 11:04:20;;;;;;;1086.60;994.80;;;25.30;87.00;;;;;;4990777;28;20514;-83
2022/08/09 11:07:10;;;;;;;1096.43;999.40;;;25.30;86.90;;;;;;4993439;28;20818;-84
2022/08/09 11:09:50;;;;;;;1092.83;998.33;;;25.30;86.40;;;;;;4991230;28;20848;-81
2022/08/09 11:12:20;;;;;;;1085.40;994.27;;;25.30;86.70;;;;;;4990349;28;20485;-83
2022/08/09 11:14:50;;;;;;;1093.03;998.37;;;25.30;86.30;;;;;;4986165;28;20853;-84
2022/08/09 11:17:51;;;;;;;1077.17;986.87;;;25.30;87.00;;;;;;4981398;28;20438;-82
2022/08/09 11:20:21;;;;;;;1078.93;988.70;;;25.30;86.50;;;;;;4990509;28;20497;-84
2022/08/09 11:23:03;;;;;;;1087.13;995.47;;;25.30;86.60;;;;;;4996131;28;20461;-82
2022/08/09 11:25:47;;;;;;;1086.97;995.17;;;25.30;86.90;;;;;;4989256;28;20957;-82
2022/08/09 11:28:40;;;;;;;1077.07;987.00;;;25.30;86.90;;;;;;4988327;28;20874;-84
2022/08/09 11:31:46;;;;;;;1079.68;989.35;;;25.30;86.80;;;;;;4984556;28;20472;-84
2022/08/09 11:34:41;;;;;;;1071.13;981.17;;;25.30;86.20;;;;;;4981664;28;20217;-84
2022/08/09 11:37:10;;;;;;;1081.03;990.43;;;25.30;86.70;;;;;;4990558;28;20445;-81
2022/08/09 11:40:04;;;;;;;1087.77;995.93;;;25.30;87.00;;;;;;4992736;28;20487;-84
2022/08/09 11:42:46;;;;;;;1082.60;992.33;;;25.30;86.80;;;;;;4992795;28;20525;-82
2022/08/09 11:45:28;;;;;;;1077.87;987.90;;;25.30;86.80;;;;;;4990282;28;20467;-81
2022/08/09 11:47:57;;;;;;;1080.23;989.83;;;25.30;86.90;;;;;;4992178;28;20455;-83
2022/08/09 11:50:25;;;;;;;1091.53;997.90;;;25.20;86.30;;;;;;4995941;28;20449;-84
2022/08/09 11:53:19;;;;;;;1090.67;997.33;;;25.20;86.30;;;;;;4993242;28;20453;-82
2022/08/09 11:55:48;;;;;;;1077.30;987.30;;;25.20;86.70;;;;;;4989772;28;20431;-82
2022/08/09 11:58:40;;;;;;;1081.33;991.13;;;25.20;86.30;;;;;;4990086;28;20198;-82
2022/08/09 12:01:08;;;;;;;1080.53;990.38;;;25.20;86.40;;;;;;4991162;28;20502;-81
2022/08/09 12:03:35;;;;;;;1069.03;979.30;;;25.10;86.40;;;;;;4996550;28;20202;-82
2022/08/09 12:06:09;;;;;;;1074.65;984.72;;;25.10;86.70;;;;;;4984494;28;20665;-84
2022/08/09 12:08:36;;;;;;;1091.05;996.92;;;25.10;86.40;;;;;;4999700;28;20718;-82
2022/08/09 12:11:05;;;;;;;1079.35;989.17;;;25.20;86.80;;;;;;4996994;28;20205;-80
2022/08/09 12:13:33;;;;;;;1068.88;979.45;;;25.10;86.20;;;;;;5003183;28;20303;-85
2022/08/09 12:16:01;;;;;;;1086.70;994.92;;;25.10;86.50;;;;;;4997166;28;20200;-81
2022/08/09 12:18:28;;;;;;;1085.45;994.17;;;25.10;86.70;;;;;;5008116;28;20216;-84